Terminal Aerodrome Forecast
Issued by NWS Northern Indiana

Home | Current Version | Previous Version | Text Only | Print | Product List | Glossary On
Versions: 1 2 3 4 5 6 7 8 9 10 11 12 13 14 15
893
FTUS43 KIWX 291739
TAFFWA
TAF
KFWA 291739Z 2918/3018 11004KT P6SM VCTS SCT030CB BKN250
      TEMPO 2918/2922 4SM -TSRA BKN030CB
     FM300500 09005KT 3SM BR BKN015
     FM301100 06004KT 1SM BR BKN010
     FM301400 11004KT P6SM BKN025=

USA.gov is the U.S. government's official web portal to all federal, state and local government web resources and services.